sensor_id;sensor_type;location;lat;lon;timestamp;P1;durP1;ratioP1;P2;durP2;ratioP2
72517;SDS011;60540;51.178;6.738;2023-02-28T00:01:32;4.45;;;2.30;;
72517;SDS011;60540;51.178;6.738;2023-02-28T00:03:59;6.35;;;2.50;;
72517;SDS011;60540;51.178;6.738;2023-02-28T00:06:25;5.25;;;2.38;;
72517;SDS011;60540;51.178;6.738;2023-02-28T00:08:51;6.57;;;2.60;;
72517;SDS011;60540;51.178;6.738;2023-02-28T00:11:17;5.40;;;2.50;;
72517;SDS011;60540;51.178;6.738;2023-02-28T00:13:44;4.28;;;2.33;;
72517;SDS011;60540;51.178;6.738;2023-02-28T00:16:13;4.57;;;2.15;;
72517;SDS011;60540;51.178;6.738;2023-02-28T00:18:40;4.28;;;2.30;;
72517;SDS011;60540;51.178;6.738;2023-02-28T00:21:06;6.93;;;2.25;;
72517;SDS011;60540;51.178;6.738;2023-02-28T00:23:32;6.40;;;2.40;;
72517;SDS011;60540;51.178;6.738;2023-02-28T00:25:58;4.05;;;2.05;;
72517;SDS011;60540;51.178;6.738;2023-02-28T00:28:24;4.43;;;2.13;;
72517;SDS011;60540;51.178;6.738;2023-02-28T00:30:50;5.30;;;2.47;;
72517;SDS011;60540;51.178;6.738;2023-02-28T00:33:16;5.63;;;2.50;;
72517;SDS011;60540;51.178;6.738;2023-02-28T00:35:41;5.85;;;2.40;;
72517;SDS011;60540;51.178;6.738;2023-02-28T00:38:07;5.00;;;2.70;;
72517;SDS011;60540;51.178;6.738;2023-02-28T00:40:33;5.35;;;2.60;;
72517;SDS011;60540;51.178;6.738;2023-02-28T00:42:59;5.78;;;2.75;;
72517;SDS011;60540;51.178;6.738;2023-02-28T00:45:24;6.00;;;2.53;;
72517;SDS011;60540;51.178;6.738;2023-02-28T00:47:50;6.38;;;2.63;;
72517;SDS011;60540;51.178;6.738;2023-02-28T00:50:19;6.45;;;2.58;;
72517;SDS011;60540;51.178;6.738;2023-02-28T00:52:46;5.15;;;2.50;;
72517;SDS011;60540;51.178;6.738;2023-02-28T00:55:12;7.28;;;2.38;;
72517;SDS011;60540;51.178;6.738;2023-02-28T00:57:38;5.10;;;2.50;;
72517;SDS011;60540;51.178;6.738;2023-02-28T01:00:04;4.35;;;2.25;;
72517;SDS011;60540;51.178;6.738;2023-02-28T01:02:30;5.57;;;2.47;;
72517;SDS011;60540;51.178;6.738;2023-02-28T01:04:56;5.88;;;2.50;;
72517;SDS011;60540;51.178;6.738;2023-02-28T01:07:22;4.13;;;2.33;;
72517;SDS011;60540;51.178;6.738;2023-02-28T01:09:48;5.97;;;2.63;;
72517;SDS011;60540;51.178;6.738;2023-02-28T01:12:14;5.05;;;2.63;;
72517;SDS011;60540;51.178;6.738;2023-02-28T01:14:40;4.43;;;2.53;;
72517;SDS011;60540;51.178;6.738;2023-02-28T01:17:06;5.70;;;2.28;;
72517;SDS011;60540;51.178;6.738;2023-02-28T01:19:32;5.50;;;2.70;;
72517;SDS011;60540;51.178;6.738;2023-02-28T01:22:00;6.45;;;2.75;;
72517;SDS011;60540;51.178;6.738;2023-02-28T01:24:29;5.38;;;2.15;;
72517;SDS011;60540;51.178;6.738;2023-02-28T01:26:55;4.05;;;2.25;;
72517;SDS011;60540;51.178;6.738;2023-02-28T01:29:21;7.05;;;2.90;;
72517;SDS011;60540;51.178;6.738;2023-02-28T01:31:47;5.82;;;3.00;;
72517;SDS011;60540;51.178;6.738;2023-02-28T01:34:12;4.28;;;2.60;;
72517;SDS011;60540;51.178;6.738;2023-02-28T01:36:38;4.50;;;2.28;;
72517;SDS011;60540;51.178;6.738;2023-02-28T01:39:04;8.30;;;2.47;;
72517;SDS011;60540;51.178;6.738;2023-02-28T01:41:31;4.60;;;2.53;;
72517;SDS011;60540;51.178;6.738;2023-02-28T01:44:05;4.00;;;2.10;;
72517;SDS011;60540;51.178;6.738;2023-02-28T01:46:32;6.35;;;2.45;;
72517;SDS011;60540;51.178;6.738;2023-02-28T01:51:33;4.78;;;2.22;;
72517;SDS011;60540;51.178;6.738;2023-02-28T01:54:27;5.13;;;2.75;;
72517;SDS011;60540;51.178;6.738;2023-02-28T01:56:59;5.65;;;2.45;;
72517;SDS011;60540;51.178;6.738;2023-02-28T01:59:37;4.80;;;2.42;;
72517;SDS011;60540;51.178;6.738;2023-02-28T02:02:11;5.45;;;2.53;;
72517;SDS011;60540;51.178;6.738;2023-02-28T02:04:41;6.05;;;2.30;;
72517;SDS011;60540;51.178;6.738;2023-02-28T02:07:12;5.18;;;2.33;;
72517;SDS011;60540;51.178;6.738;2023-02-28T02:09:38;5.38;;;2.80;;
72517;SDS011;60540;51.178;6.738;2023-02-28T02:12:07;5.88;;;2.92;;
72517;SDS011;60540;51.178;6.738;2023-02-28T02:17:50;6.05;;;2.58;;
72517;SDS011;60540;51.178;6.738;2023-02-28T02:30:59;4.82;;;2.10;;
72517;SDS011;60540;51.178;6.738;2023-02-28T02:36:36;4.32;;;2.47;;
72517;SDS011;60540;51.178;6.738;2023-02-28T02:39:17;5.65;;;3.10;;
72517;SDS011;60540;51.178;6.738;2023-02-28T02:41:49;7.00;;;2.67;;
72517;SDS011;60540;51.178;6.738;2023-02-28T02:44:24;5.47;;;2.70;;
72517;SDS011;60540;51.178;6.738;2023-02-28T02:47:10;4.85;;;2.50;;
72517;SDS011;60540;51.178;6.738;2023-02-28T02:49:42;6.05;;;2.67;;
72517;SDS011;60540;51.178;6.738;2023-02-28T02:52:12;4.72;;;2.58;;
72517;SDS011;60540;51.178;6.738;2023-02-28T02:54:41;5.03;;;2.70;;
72517;SDS011;60540;51.178;6.738;2023-02-28T02:57:13;5.30;;;2.50;;
72517;SDS011;60540;51.178;6.738;2023-02-28T02:59:41;4.85;;;2.38;;
72517;SDS011;60540;51.178;6.738;2023-02-28T03:02:10;4.75;;;2.28;;
72517;SDS011;60540;51.178;6.738;2023-02-28T03:04:46;7.60;;;2.50;;
72517;SDS011;60540;51.178;6.738;2023-02-28T03:07:16;7.60;;;2.58;;
72517;SDS011;60540;51.178;6.738;2023-02-28T03:09:49;7.43;;;2.97;;
72517;SDS011;60540;51.178;6.738;2023-02-28T03:12:18;5.93;;;2.47;;
72517;SDS011;60540;51.178;6.738;2023-02-28T03:17:36;5.10;;;3.05;;
72517;SDS011;60540;51.178;6.738;2023-02-28T03:23:38;6.32;;;3.63;;
72517;SDS011;60540;51.178;6.738;2023-02-28T03:26:06;6.05;;;2.80;;
72517;SDS011;60540;51.178;6.738;2023-02-28T03:31:20;5.35;;;2.67;;
72517;SDS011;60540;51.178;6.738;2023-02-28T03:33:54;6.88;;;3.10;;
72517;SDS011;60540;51.178;6.738;2023-02-28T03:36:25;6.78;;;3.00;;
72517;SDS011;60540;51.178;6.738;2023-02-28T03:39:07;6.28;;;2.63;;
72517;SDS011;60540;51.178;6.738;2023-02-28T03:44:09;5.82;;;2.65;;
72517;SDS011;60540;51.178;6.738;2023-02-28T03:46:42;6.07;;;2.80;;
72517;SDS011;60540;51.178;6.738;2023-02-28T03:49:14;5.88;;;2.80;;
72517;SDS011;60540;51.178;6.738;2023-02-28T03:51:42;6.22;;;2.83;;
72517;SDS011;60540;51.178;6.738;2023-02-28T03:56:38;3.90;;;2.28;;
72517;SDS011;60540;51.178;6.738;2023-02-28T03:59:18;4.18;;;2.33;;
72517;SDS011;60540;51.178;6.738;2023-02-28T04:04:13;6.47;;;2.67;;
72517;SDS011;60540;51.178;6.738;2023-02-28T04:06:40;3.33;;;2.10;;
72517;SDS011;60540;51.178;6.738;2023-02-28T04:09:06;6.50;;;2.60;;
72517;SDS011;60540;51.178;6.738;2023-02-28T04:11:37;4.18;;;2.40;;
72517;SDS011;60540;51.178;6.738;2023-02-28T04:14:04;4.82;;;2.50;;
72517;SDS011;60540;51.178;6.738;2023-02-28T04:16:31;5.70;;;2.50;;
72517;SDS011;60540;51.178;6.738;2023-02-28T04:18:58;5.90;;;2.58;;
72517;SDS011;60540;51.178;6.738;2023-02-28T04:21:28;4.60;;;2.67;;
72517;SDS011;60540;51.178;6.738;2023-02-28T04:23:54;3.88;;;2.55;;
72517;SDS011;60540;51.178;6.738;2023-02-28T04:26:20;4.82;;;2.45;;
72517;SDS011;60540;51.178;6.738;2023-02-28T04:28:46;4.55;;;2.17;;
72517;SDS011;60540;51.178;6.738;2023-02-28T04:31:12;4.22;;;2.22;;
72517;SDS011;60540;51.178;6.738;2023-02-28T04:33:37;6.13;;;2.50;;
72517;SDS011;60540;51.178;6.738;2023-02-28T04:36:04;4.60;;;2.75;;
72517;SDS011;60540;51.178;6.738;2023-02-28T04:38:33;4.05;;;2.40;;
72517;SDS011;60540;51.178;6.738;2023-02-28T04:41:00;6.28;;;2.10;;
72517;SDS011;60540;51.178;6.738;2023-02-28T04:43:26;4.65;;;2.17;;
72517;SDS011;60540;51.178;6.738;2023-02-28T04:45:53;4.25;;;2.42;;
72517;SDS011;60540;51.178;6.738;2023-02-28T04:48:22;5.45;;;2.35;;
72517;SDS011;60540;51.178;6.738;2023-02-28T04:50:51;4.18;;;2.50;;
72517;SDS011;60540;51.178;6.738;2023-02-28T04:53:16;5.18;;;2.63;;
72517;SDS011;60540;51.178;6.738;2023-02-28T04:55:43;4.28;;;2.05;;
72517;SDS011;60540;51.178;6.738;2023-02-28T04:58:08;3.88;;;2.22;;
72517;SDS011;60540;51.178;6.738;2023-02-28T05:00:34;3.97;;;1.95;;
72517;SDS011;60540;51.178;6.738;2023-02-28T05:03:00;4.60;;;2.25;;
72517;SDS011;60540;51.178;6.738;2023-02-28T05:05:26;3.60;;;2.00;;
72517;SDS011;60540;51.178;6.738;2023-02-28T05:07:52;5.05;;;2.85;;
72517;SDS011;60540;51.178;6.738;2023-02-28T05:10:19;6.80;;;2.50;;
72517;SDS011;60540;51.178;6.738;2023-02-28T05:12:44;5.78;;;2.60;;
72517;SDS011;60540;51.178;6.738;2023-02-28T05:15:12;4.68;;;2.28;;
72517;SDS011;60540;51.178;6.738;2023-02-28T05:17:39;7.10;;;2.40;;
72517;SDS011;60540;51.178;6.738;2023-02-28T05:20:05;4.65;;;2.38;;
72517;SDS011;60540;51.178;6.738;2023-02-28T05:22:31;4.78;;;2.42;;
72517;SDS011;60540;51.178;6.738;2023-02-28T05:24:57;5.10;;;2.50;;
72517;SDS011;60540;51.178;6.738;2023-02-28T05:27:23;4.55;;;2.28;;
72517;SDS011;60540;51.178;6.738;2023-02-28T05:29:49;5.30;;;2.58;;
72517;SDS011;60540;51.178;6.738;2023-02-28T05:32:14;4.35;;;2.13;;
72517;SDS011;60540;51.178;6.738;2023-02-28T05:34:41;3.85;;;2.03;;
72517;SDS011;60540;51.178;6.738;2023-02-28T05:37:10;4.88;;;2.35;;
72517;SDS011;60540;51.178;6.738;2023-02-28T05:39:37;5.80;;;2.28;;
72517;SDS011;60540;51.178;6.738;2023-02-28T05:42:04;3.63;;;1.63;;
72517;SDS011;60540;51.178;6.738;2023-02-28T05:44:30;4.68;;;2.78;;
72517;SDS011;60540;51.178;6.738;2023-02-28T05:46:56;4.80;;;2.03;;
72517;SDS011;60540;51.178;6.738;2023-02-28T05:49:22;5.93;;;2.65;;
72517;SDS011;60540;51.178;6.738;2023-02-28T05:51:47;5.68;;;2.08;;
72517;SDS011;60540;51.178;6.738;2023-02-28T05:54:13;5.63;;;2.70;;
72517;SDS011;60540;51.178;6.738;2023-02-28T05:56:39;4.50;;;2.47;;
72517;SDS011;60540;51.178;6.738;2023-02-28T05:59:06;4.35;;;2.10;;
72517;SDS011;60540;51.178;6.738;2023-02-28T06:04:02;5.22;;;2.60;;
72517;SDS011;60540;51.178;6.738;2023-02-28T06:06:29;5.63;;;2.50;;
72517;SDS011;60540;51.178;6.738;2023-02-28T06:08:55;3.67;;;2.10;;
72517;SDS011;60540;51.178;6.738;2023-02-28T06:11:21;4.40;;;2.10;;
72517;SDS011;60540;51.178;6.738;2023-02-28T06:13:56;4.88;;;2.42;;
72517;SDS011;60540;51.178;6.738;2023-02-28T06:16:22;4.90;;;2.22;;
72517;SDS011;60540;51.178;6.738;2023-02-28T06:18:48;4.88;;;2.42;;
72517;SDS011;60540;51.178;6.738;2023-02-28T06:21:14;7.50;;;2.63;;
72517;SDS011;60540;51.178;6.738;2023-02-28T06:23:40;4.50;;;2.53;;
72517;SDS011;60540;51.178;6.738;2023-02-28T06:26:06;5.22;;;2.53;;
72517;SDS011;60540;51.178;6.738;2023-02-28T06:28:31;4.55;;;2.15;;
72517;SDS011;60540;51.178;6.738;2023-02-28T06:30:57;4.38;;;2.20;;
72517;SDS011;60540;51.178;6.738;2023-02-28T06:33:23;4.38;;;2.03;;
72517;SDS011;60540;51.178;6.738;2023-02-28T06:35:52;4.15;;;1.95;;
72517;SDS011;60540;51.178;6.738;2023-02-28T06:38:18;3.72;;;2.30;;
72517;SDS011;60540;51.178;6.738;2023-02-28T06:40:44;3.70;;;2.13;;
72517;SDS011;60540;51.178;6.738;2023-02-28T06:43:10;5.15;;;2.17;;
72517;SDS011;60540;51.178;6.738;2023-02-28T06:45:42;4.28;;;2.10;;
72517;SDS011;60540;51.178;6.738;2023-02-28T06:48:09;4.47;;;2.30;;
72517;SDS011;60540;51.178;6.738;2023-02-28T06:50:35;3.90;;;2.00;;
72517;SDS011;60540;51.178;6.738;2023-02-28T06:53:02;5.25;;;2.15;;
72517;SDS011;60540;51.178;6.738;2023-02-28T06:55:28;4.18;;;1.88;;
72517;SDS011;60540;51.178;6.738;2023-02-28T06:57:53;5.18;;;2.53;;
72517;SDS011;60540;51.178;6.738;2023-02-28T07:00:20;6.45;;;2.72;;
72517;SDS011;60540;51.178;6.738;2023-02-28T07:02:46;5.00;;;2.42;;
72517;SDS011;60540;51.178;6.738;2023-02-28T07:05:12;5.10;;;2.40;;
72517;SDS011;60540;51.178;6.738;2023-02-28T07:07:39;5.18;;;2.20;;
72517;SDS011;60540;51.178;6.738;2023-02-28T07:10:09;4.40;;;2.42;;
72517;SDS011;60540;51.178;6.738;2023-02-28T07:12:36;5.10;;;2.35;;
72517;SDS011;60540;51.178;6.738;2023-02-28T07:15:02;5.03;;;2.25;;
72517;SDS011;60540;51.178;6.738;2023-02-28T07:17:29;5.70;;;2.38;;
72517;SDS011;60540;51.178;6.738;2023-02-28T07:19:55;6.07;;;2.10;;
72517;SDS011;60540;51.178;6.738;2023-02-28T07:22:21;4.47;;;2.20;;
72517;SDS011;60540;51.178;6.738;2023-02-28T07:24:47;3.38;;;1.90;;
72517;SDS011;60540;51.178;6.738;2023-02-28T07:27:13;4.07;;;1.95;;
72517;SDS011;60540;51.178;6.738;2023-02-28T07:29:49;4.20;;;1.90;;
72517;SDS011;60540;51.178;6.738;2023-02-28T07:32:15;3.75;;;1.98;;
72517;SDS011;60540;51.178;6.738;2023-02-28T07:34:41;4.72;;;2.20;;
72517;SDS011;60540;51.178;6.738;2023-02-28T07:37:07;3.53;;;1.98;;
72517;SDS011;60540;51.178;6.738;2023-02-28T07:39:32;4.22;;;2.10;;
72517;SDS011;60540;51.178;6.738;2023-02-28T07:41:58;3.65;;;2.05;;
72517;SDS011;60540;51.178;6.738;2023-02-28T07:44:25;4.20;;;1.90;;
72517;SDS011;60540;51.178;6.738;2023-02-28T07:46:51;3.42;;;2.00;;
72517;SDS011;60540;51.178;6.738;2023-02-28T07:49:18;4.78;;;2.20;;
72517;SDS011;60540;51.178;6.738;2023-02-28T07:51:43;6.18;;;2.17;;
72517;SDS011;60540;51.178;6.738;2023-02-28T07:54:09;3.20;;;2.08;;
72517;SDS011;60540;51.178;6.738;2023-02-28T07:56:35;3.60;;;1.98;;
72517;SDS011;60540;51.178;6.738;2023-02-28T07:59:01;5.40;;;2.15;;
72517;SDS011;60540;51.178;6.738;2023-02-28T08:01:27;5.03;;;2.20;;
72517;SDS011;60540;51.178;6.738;2023-02-28T08:03:52;4.25;;;1.90;;
72517;SDS011;60540;51.178;6.738;2023-02-28T08:08:47;5.40;;;2.28;;
72517;SDS011;60540;51.178;6.738;2023-02-28T08:11:13;3.45;;;1.77;;
72517;SDS011;60540;51.178;6.738;2023-02-28T08:13:38;3.85;;;1.80;;
72517;SDS011;60540;51.178;6.738;2023-02-28T08:16:04;3.40;;;1.85;;
72517;SDS011;60540;51.178;6.738;2023-02-28T08:18:30;3.53;;;2.10;;
72517;SDS011;60540;51.178;6.738;2023-02-28T08:20:56;4.63;;;2.30;;
72517;SDS011;60540;51.178;6.738;2023-02-28T08:23:22;3.95;;;2.00;;
72517;SDS011;60540;51.178;6.738;2023-02-28T08:25:55;2.75;;;1.60;;
72517;SDS011;60540;51.178;6.738;2023-02-28T08:28:21;4.00;;;2.00;;
72517;SDS011;60540;51.178;6.738;2023-02-28T08:30:47;3.85;;;1.83;;
72517;SDS011;60540;51.178;6.738;2023-02-28T08:33:14;2.97;;;1.80;;
72517;SDS011;60540;51.178;6.738;2023-02-28T08:35:40;3.15;;;1.77;;
72517;SDS011;60540;51.178;6.738;2023-02-28T08:38:05;4.10;;;2.15;;
72517;SDS011;60540;51.178;6.738;2023-02-28T08:40:31;4.18;;;1.80;;
72517;SDS011;60540;51.178;6.738;2023-02-28T08:42:57;3.47;;;1.80;;
72517;SDS011;60540;51.178;6.738;2023-02-28T08:45:23;4.25;;;1.77;;
72517;SDS011;60540;51.178;6.738;2023-02-28T08:47:49;2.95;;;1.73;;
72517;SDS011;60540;51.178;6.738;2023-02-28T08:50:15;3.30;;;1.67;;
72517;SDS011;60540;51.178;6.738;2023-02-28T08:52:42;8.30;;;1.88;;
72517;SDS011;60540;51.178;6.738;2023-02-28T08:55:09;3.13;;;1.50;;
72517;SDS011;60540;51.178;6.738;2023-02-28T08:57:35;3.63;;;1.77;;
72517;SDS011;60540;51.178;6.738;2023-02-28T09:00:01;4.20;;;2.13;;
72517;SDS011;60540;51.178;6.738;2023-02-28T09:02:32;3.17;;;1.50;;
72517;SDS011;60540;51.178;6.738;2023-02-28T09:04:58;3.28;;;1.60;;
72517;SDS011;60540;51.178;6.738;2023-02-28T09:07:24;2.92;;;1.48;;
72517;SDS011;60540;51.178;6.738;2023-02-28T09:09:50;3.42;;;1.55;;
72517;SDS011;60540;51.178;6.738;2023-02-28T09:12:25;3.90;;;1.85;;
72517;SDS011;60540;51.178;6.738;2023-02-28T09:14:52;3.33;;;1.50;;
72517;SDS011;60540;51.178;6.738;2023-02-28T09:17:18;4.45;;;1.83;;
72517;SDS011;60540;51.178;6.738;2023-02-28T09:19:44;2.75;;;1.38;;
72517;SDS011;60540;51.178;6.738;2023-02-28T09:22:10;3.30;;;1.45;;
72517;SDS011;60540;51.178;6.738;2023-02-28T09:24:37;3.58;;;1.65;;
72517;SDS011;60540;51.178;6.738;2023-02-28T09:27:03;3.53;;;1.25;;
72517;SDS011;60540;51.178;6.738;2023-02-28T09:29:29;2.53;;;1.30;;
72517;SDS011;60540;51.178;6.738;2023-02-28T09:31:56;2.33;;;1.33;;
72517;SDS011;60540;51.178;6.738;2023-02-28T09:34:26;2.83;;;1.38;;
72517;SDS011;60540;51.178;6.738;2023-02-28T09:36:52;2.17;;;1.10;;
72517;SDS011;60540;51.178;6.738;2023-02-28T09:39:23;2.40;;;1.20;;
72517;SDS011;60540;51.178;6.738;2023-02-28T09:41:52;1.98;;;1.23;;
72517;SDS011;60540;51.178;6.738;2023-02-28T09:44:21;2.83;;;1.30;;
72517;SDS011;60540;51.178;6.738;2023-02-28T09:46:51;2.42;;;1.30;;
72517;SDS011;60540;51.178;6.738;2023-02-28T09:49:22;2.72;;;1.35;;
72517;SDS011;60540;51.178;6.738;2023-02-28T09:51:50;4.57;;;1.40;;
72517;SDS011;60540;51.178;6.738;2023-02-28T09:54:18;3.97;;;1.58;;
72517;SDS011;60540;51.178;6.738;2023-02-28T09:56:56;3.08;;;1.30;;
72517;SDS011;60540;51.178;6.738;2023-02-28T10:02:04;2.17;;;1.25;;
72517;SDS011;60540;51.178;6.738;2023-02-28T10:10:27;2.75;;;1.23;;
72517;SDS011;60540;51.178;6.738;2023-02-28T10:12:56;4.38;;;1.98;;
72517;SDS011;60540;51.178;6.738;2023-02-28T10:15:25;3.80;;;1.58;;
72517;SDS011;60540;51.178;6.738;2023-02-28T10:17:54;3.13;;;1.58;;
72517;SDS011;60540;51.178;6.738;2023-02-28T10:20:22;1.88;;;1.15;;
72517;SDS011;60540;51.178;6.738;2023-02-28T10:25:59;2.42;;;1.20;;
72517;SDS011;60540;51.178;6.738;2023-02-28T10:28:29;3.50;;;1.35;;
72517;SDS011;60540;51.178;6.738;2023-02-28T10:33:23;1.85;;;1.05;;
72517;SDS011;60540;51.178;6.738;2023-02-28T10:38:25;2.28;;;1.10;;
72517;SDS011;60540;51.178;6.738;2023-02-28T10:41:07;3.70;;;1.23;;
72517;SDS011;60540;51.178;6.738;2023-02-28T10:43:34;4.07;;;1.42;;
72517;SDS011;60540;51.178;6.738;2023-02-28T10:48:32;2.88;;;1.48;;
72517;SDS011;60540;51.178;6.738;2023-02-28T10:50:59;2.92;;;1.40;;
72517;SDS011;60540;51.178;6.738;2023-02-28T10:58:51;2.45;;;1.27;;
72517;SDS011;60540;51.178;6.738;2023-02-28T11:01:27;4.03;;;1.60;;
72517;SDS011;60540;51.178;6.738;2023-02-28T11:04:03;3.30;;;1.50;;
72517;SDS011;60540;51.178;6.738;2023-02-28T11:06:42;2.95;;;1.27;;
72517;SDS011;60540;51.178;6.738;2023-02-28T11:09:20;6.30;;;1.67;;
72517;SDS011;60540;51.178;6.738;2023-02-28T11:11:49;2.70;;;1.30;;
72517;SDS011;60540;51.178;6.738;2023-02-28T11:14:35;2.70;;;1.33;;
72517;SDS011;60540;51.178;6.738;2023-02-28T11:17:26;2.72;;;1.60;;
72517;SDS011;60540;51.178;6.738;2023-02-28T11:19:55;3.03;;;1.33;;
72517;SDS011;60540;51.178;6.738;2023-02-28T11:22:27;2.50;;;1.48;;
72517;SDS011;60540;51.178;6.738;2023-02-28T11:24:55;2.75;;;1.40;;
72517;SDS011;60540;51.178;6.738;2023-02-28T11:29:54;2.97;;;1.20;;
72517;SDS011;60540;51.178;6.738;2023-02-28T11:32:21;2.75;;;1.27;;
72517;SDS011;60540;51.178;6.738;2023-02-28T11:35:00;2.60;;;1.20;;
72517;SDS011;60540;51.178;6.738;2023-02-28T11:37:39;2.40;;;1.15;;
72517;SDS011;60540;51.178;6.738;2023-02-28T11:40:08;3.20;;;1.17;;
72517;SDS011;60540;51.178;6.738;2023-02-28T11:45:55;3.25;;;1.33;;
72517;SDS011;60540;51.178;6.738;2023-02-28T11:48:49;2.92;;;1.40;;
72517;SDS011;60540;51.178;6.738;2023-02-28T11:59:04;2.75;;;1.50;;
72517;SDS011;60540;51.178;6.738;2023-02-28T12:04:34;5.22;;;1.80;;
72517;SDS011;60540;51.178;6.738;2023-02-28T12:10:32;3.45;;;1.70;;
72517;SDS011;60540;51.178;6.738;2023-02-28T12:15:48;3.70;;;1.45;;
72517;SDS011;60540;51.178;6.738;2023-02-28T12:18:25;4.47;;;1.73;;
72517;SDS011;60540;51.178;6.738;2023-02-28T12:26:02;3.00;;;1.40;;
72517;SDS011;60540;51.178;6.738;2023-02-28T12:28:38;2.58;;;1.40;;
72517;SDS011;60540;51.178;6.738;2023-02-28T12:33:48;3.10;;;1.40;;
72517;SDS011;60540;51.178;6.738;2023-02-28T12:36:17;3.08;;;1.50;;
72517;SDS011;60540;51.178;6.738;2023-02-28T12:38:48;3.70;;;1.60;;
72517;SDS011;60540;51.178;6.738;2023-02-28T12:41:22;3.45;;;1.80;;
72517;SDS011;60540;51.178;6.738;2023-02-28T12:44:01;3.10;;;1.50;;
72517;SDS011;60540;51.178;6.738;2023-02-28T12:48:56;3.72;;;1.67;;
72517;SDS011;60540;51.178;6.738;2023-02-28T12:51:23;3.78;;;1.70;;
72517;SDS011;60540;51.178;6.738;2023-02-28T12:54:11;2.80;;;1.50;;
72517;SDS011;60540;51.178;6.738;2023-02-28T12:56:46;3.55;;;1.50;;
72517;SDS011;60540;51.178;6.738;2023-02-28T13:01:52;3.72;;;1.83;;
72517;SDS011;60540;51.178;6.738;2023-02-28T13:04:53;4.80;;;2.10;;
72517;SDS011;60540;51.178;6.738;2023-02-28T13:10:04;3.72;;;1.60;;
72517;SDS011;60540;51.178;6.738;2023-02-28T13:12:31;4.63;;;1.65;;
72517;SDS011;60540;51.178;6.738;2023-02-28T13:15:02;2.97;;;1.70;;
72517;SDS011;60540;51.178;6.738;2023-02-28T13:17:29;4.20;;;1.95;;
72517;SDS011;60540;51.178;6.738;2023-02-28T13:22:35;3.35;;;1.58;;
72517;SDS011;60540;51.178;6.738;2023-02-28T13:25:49;3.05;;;1.50;;
72517;SDS011;60540;51.178;6.738;2023-02-28T13:28:10;3.50;;;1.30;;
72517;SDS011;60540;51.178;6.738;2023-02-28T13:36:35;2.72;;;1.30;;
72517;SDS011;60540;51.178;6.738;2023-02-28T13:38:39;4.78;;;1.75;;
72517;SDS011;60540;51.178;6.738;2023-02-28T13:41:47;3.65;;;1.60;;
72517;SDS011;60540;51.178;6.738;2023-02-28T13:51:49;3.15;;;1.63;;
72517;SDS011;60540;51.178;6.738;2023-02-28T13:57:21;4.25;;;1.63;;
72517;SDS011;60540;51.178;6.738;2023-02-28T14:05:13;3.78;;;2.00;;
72517;SDS011;60540;51.178;6.738;2023-02-28T14:07:48;3.95;;;1.95;;
72517;SDS011;60540;51.178;6.738;2023-02-28T14:10:21;2.92;;;1.83;;
72517;SDS011;60540;51.178;6.738;2023-02-28T14:15:27;4.05;;;1.90;;
72517;SDS011;60540;51.178;6.738;2023-02-28T14:17:55;3.20;;;2.00;;
72517;SDS011;60540;51.178;6.738;2023-02-28T14:20:21;4.03;;;1.90;;
72517;SDS011;60540;51.178;6.738;2023-02-28T14:23:11;5.53;;;2.65;;
72517;SDS011;60540;51.178;6.738;2023-02-28T14:31:13;3.67;;;1.92;;
72517;SDS011;60540;51.178;6.738;2023-02-28T14:34:32;4.70;;;2.67;;
72517;SDS011;60540;51.178;6.738;2023-02-28T14:36:49;3.78;;;1.67;;
72517;SDS011;60540;51.178;6.738;2023-02-28T14:39:19;3.88;;;1.58;;
72517;SDS011;60540;51.178;6.738;2023-02-28T14:41:46;3.53;;;1.90;;
72517;SDS011;60540;51.178;6.738;2023-02-28T14:46:46;5.30;;;2.10;;
72517;SDS011;60540;51.178;6.738;2023-02-28T14:49:27;3.55;;;1.80;;
72517;SDS011;60540;51.178;6.738;2023-02-28T14:52:09;4.88;;;2.20;;
72517;SDS011;60540;51.178;6.738;2023-02-28T14:54:40;4.38;;;2.10;;
72517;SDS011;60540;51.178;6.738;2023-02-28T14:57:19;3.88;;;2.03;;
72517;SDS011;60540;51.178;6.738;2023-02-28T15:02:25;4.20;;;2.05;;
72517;SDS011;60540;51.178;6.738;2023-02-28T15:04:59;5.07;;;2.20;;
72517;SDS011;60540;51.178;6.738;2023-02-28T15:07:35;3.58;;;2.10;;
72517;SDS011;60540;51.178;6.738;2023-02-28T15:12:39;5.22;;;2.20;;
72517;SDS011;60540;51.178;6.738;2023-02-28T15:15:06;3.80;;;1.98;;
72517;SDS011;60540;51.178;6.738;2023-02-28T15:17:45;4.28;;;2.00;;
72517;SDS011;60540;51.178;6.738;2023-02-28T15:22:37;4.63;;;1.80;;
72517;SDS011;60540;51.178;6.738;2023-02-28T15:25:04;4.57;;;2.15;;
72517;SDS011;60540;51.178;6.738;2023-02-28T15:27:31;4.28;;;2.17;;
72517;SDS011;60540;51.178;6.738;2023-02-28T15:29:59;3.45;;;2.00;;
72517;SDS011;60540;51.178;6.738;2023-02-28T15:32:34;3.38;;;1.90;;
72517;SDS011;60540;51.178;6.738;2023-02-28T15:37:57;4.28;;;2.17;;
72517;SDS011;60540;51.178;6.738;2023-02-28T15:40:27;4.03;;;2.00;;
72517;SDS011;60540;51.178;6.738;2023-02-28T15:42:58;3.42;;;2.03;;
72517;SDS011;60540;51.178;6.738;2023-02-28T15:45:35;5.38;;;2.28;;
72517;SDS011;60540;51.178;6.738;2023-02-28T15:48:13;4.63;;;2.15;;
72517;SDS011;60540;51.178;6.738;2023-02-28T15:50:41;4.35;;;2.35;;
72517;SDS011;60540;51.178;6.738;2023-02-28T15:53:43;4.05;;;2.28;;
72517;SDS011;60540;51.178;6.738;2023-02-28T15:56:03;4.95;;;2.10;;
72517;SDS011;60540;51.178;6.738;2023-02-28T15:58:31;3.88;;;2.05;;
72517;SDS011;60540;51.178;6.738;2023-02-28T16:01:05;4.78;;;2.30;;
72517;SDS011;60540;51.178;6.738;2023-02-28T16:03:37;3.97;;;2.05;;
72517;SDS011;60540;51.178;6.738;2023-02-28T16:09:09;4.10;;;2.30;;
72517;SDS011;60540;51.178;6.738;2023-02-28T16:11:45;4.57;;;2.30;;
72517;SDS011;60540;51.178;6.738;2023-02-28T16:14:16;4.20;;;2.20;;
72517;SDS011;60540;51.178;6.738;2023-02-28T16:16:53;5.25;;;2.20;;
72517;SDS011;60540;51.178;6.738;2023-02-28T16:19:20;4.32;;;2.00;;
72517;SDS011;60540;51.178;6.738;2023-02-28T16:21:46;5.75;;;2.50;;
72517;SDS011;60540;51.178;6.738;2023-02-28T16:24:12;4.38;;;2.47;;
72517;SDS011;60540;51.178;6.738;2023-02-28T16:26:39;3.22;;;1.92;;
72517;SDS011;60540;51.178;6.738;2023-02-28T16:29:05;4.35;;;2.15;;
72517;SDS011;60540;51.178;6.738;2023-02-28T16:31:33;5.18;;;2.13;;
72517;SDS011;60540;51.178;6.738;2023-02-28T16:34:01;3.97;;;2.05;;
72517;SDS011;60540;51.178;6.738;2023-02-28T16:36:27;6.35;;;2.88;;
72517;SDS011;60540;51.178;6.738;2023-02-28T16:38:53;4.45;;;2.42;;
72517;SDS011;60540;51.178;6.738;2023-02-28T16:41:24;4.95;;;2.10;;
72517;SDS011;60540;51.178;6.738;2023-02-28T16:43:51;4.10;;;2.40;;
72517;SDS011;60540;51.178;6.738;2023-02-28T16:46:18;4.28;;;2.47;;
72517;SDS011;60540;51.178;6.738;2023-02-28T16:48:45;3.90;;;2.35;;
72517;SDS011;60540;51.178;6.738;2023-02-28T16:51:12;5.78;;;2.35;;
72517;SDS011;60540;51.178;6.738;2023-02-28T16:53:38;4.20;;;2.30;;
72517;SDS011;60540;51.178;6.738;2023-02-28T16:56:04;4.93;;;2.45;;
72517;SDS011;60540;51.178;6.738;2023-02-28T16:58:32;5.63;;;2.60;;
72517;SDS011;60540;51.178;6.738;2023-02-28T17:01:01;4.05;;;2.20;;
72517;SDS011;60540;51.178;6.738;2023-02-28T17:03:28;4.28;;;2.50;;
72517;SDS011;60540;51.178;6.738;2023-02-28T17:05:54;4.00;;;2.30;;
72517;SDS011;60540;51.178;6.738;2023-02-28T17:08:20;5.20;;;3.10;;
72517;SDS011;60540;51.178;6.738;2023-02-28T17:10:46;5.25;;;2.70;;
72517;SDS011;60540;51.178;6.738;2023-02-28T17:13:12;4.15;;;2.55;;
72517;SDS011;60540;51.178;6.738;2023-02-28T17:15:38;7.38;;;2.83;;
72517;SDS011;60540;51.178;6.738;2023-02-28T17:18:04;4.45;;;2.28;;
72517;SDS011;60540;51.178;6.738;2023-02-28T17:20:31;4.38;;;2.40;;
72517;SDS011;60540;51.178;6.738;2023-02-28T17:22:57;6.55;;;2.92;;
72517;SDS011;60540;51.178;6.738;2023-02-28T17:25:23;4.07;;;2.28;;
72517;SDS011;60540;51.178;6.738;2023-02-28T17:27:49;3.85;;;2.70;;
72517;SDS011;60540;51.178;6.738;2023-02-28T17:30:18;4.60;;;2.58;;
72517;SDS011;60540;51.178;6.738;2023-02-28T17:32:45;5.00;;;2.67;;